Главная страница
METAR-TAF:

METAR-TAF

Аэропорты :

Международный аэропорт имени Мурталы Мухаммеда

Лагос, Нигерия

широта: 06-35N, долгота: 003-20E, высота над уровнем моря: 40 м

Текущие метеонаблюдения

Эта сводка был подготовлена 14 часа и 4 минут назад, в 09:00 UTC
Ветер 2 Узел переменных направлений
Температура 28°C
Влажность 84%
Давление 1014 hPa
Видимость 10 км и более
Рассеянная облачность на высоте 1200 фута
небольшая облачность на высоте 2000 фута, Кучево-дождевые.

METAR: DNMM 210900Z VRB02KT 9999 BKN012 FEW020CB 28/25 Q1014 NOSIG

Время: 00:04 (23:04 UTC)


TAF: отсутствует

Метеонаблюдения и прогнозы для более 4000 аэропортов (сводки METAR и TAF).

Имеющиеся станции представлены на карте желтыми и красными точками.

Чтобы увидеть название станции, наведите на нее мышь.

Затем щелкните, чтобы увидеть метеонаблюдения и метеопрогнозы.

Управление картой: чтобы увеличить масштаб, щелкните зеленые кнопки с черным крестиком; чтобы уменьшить масштаб, щелкните зеленую кнопку с тире; для просмотра соседних карт щелкайте зеленые стрелки.


METAR-TAF: